sensor_id;sensor_type;location;lat;lon;timestamp;P1;durP1;ratioP1;P2;durP2;ratioP2
44764;SDS011;30484;52.382;5.260;2023-04-01T00:01:39;54.47;;;13.63;;
44764;SDS011;30484;52.382;5.260;2023-04-01T00:04:09;53.55;;;13.25;;
44764;SDS011;30484;52.382;5.260;2023-04-01T00:06:38;48.72;;;13.25;;
44764;SDS011;30484;52.382;5.260;2023-04-01T00:09:07;59.00;;;13.10;;
44764;SDS011;30484;52.382;5.260;2023-04-01T00:11:37;54.92;;;13.50;;
44764;SDS011;30484;52.382;5.260;2023-04-01T00:14:06;50.63;;;13.52;;
44764;SDS011;30484;52.382;5.260;2023-04-01T00:16:35;40.92;;;11.38;;
44764;SDS011;30484;52.382;5.260;2023-04-01T00:19:04;40.90;;;12.38;;
44764;SDS011;30484;52.382;5.260;2023-04-01T00:21:34;58.70;;;14.35;;
44764;SDS011;30484;52.382;5.260;2023-04-01T00:24:03;52.92;;;13.90;;
44764;SDS011;30484;52.382;5.260;2023-04-01T00:26:33;55.97;;;15.23;;
44764;SDS011;30484;52.382;5.260;2023-04-01T00:29:03;55.83;;;18.98;;
44764;SDS011;30484;52.382;5.260;2023-04-01T00:31:34;58.15;;;16.60;;
44764;SDS011;30484;52.382;5.260;2023-04-01T00:34:05;52.53;;;15.77;;
44764;SDS011;30484;52.382;5.260;2023-04-01T00:36:34;58.33;;;15.90;;
44764;SDS011;30484;52.382;5.260;2023-04-01T00:39:02;50.75;;;16.83;;
44764;SDS011;30484;52.382;5.260;2023-04-01T00:41:31;52.33;;;16.42;;
44764;SDS011;30484;52.382;5.260;2023-04-01T00:44:18;51.30;;;15.77;;
44764;SDS011;30484;52.382;5.260;2023-04-01T00:46:50;54.83;;;16.10;;
44764;SDS011;30484;52.382;5.260;2023-04-01T00:49:22;53.50;;;15.13;;
44764;SDS011;30484;52.382;5.260;2023-04-01T00:51:57;42.58;;;16.23;;
44764;SDS011;30484;52.382;5.260;2023-04-01T00:54:29;48.63;;;15.40;;
44764;SDS011;30484;52.382;5.260;2023-04-01T00:57:00;40.92;;;15.15;;
44764;SDS011;30484;52.382;5.260;2023-04-01T00:59:35;45.95;;;16.85;;
44764;SDS011;30484;52.382;5.260;2023-04-01T01:02:10;52.78;;;17.77;;
44764;SDS011;30484;52.382;5.260;2023-04-01T01:04:41;54.92;;;17.77;;
44764;SDS011;30484;52.382;5.260;2023-04-01T01:07:12;56.92;;;19.38;;
44764;SDS011;30484;52.382;5.260;2023-04-01T01:09:54;57.42;;;17.08;;
44764;SDS011;30484;52.382;5.260;2023-04-01T01:12:31;55.85;;;17.80;;
44764;SDS011;30484;52.382;5.260;2023-04-01T01:17:46;52.13;;;15.13;;
44764;SDS011;30484;52.382;5.260;2023-04-01T01:20:31;50.03;;;15.23;;
44764;SDS011;30484;52.382;5.260;2023-04-01T01:26:42;48.90;;;13.55;;
44764;SDS011;30484;52.382;5.260;2023-04-01T01:29:29;41.47;;;15.13;;
44764;SDS011;30484;52.382;5.260;2023-04-01T01:32:16;46.92;;;15.93;;
44764;SDS011;30484;52.382;5.260;2023-04-01T01:35:14;39.10;;;12.20;;
44764;SDS011;30484;52.382;5.260;2023-04-01T01:37:50;47.17;;;11.35;;
44764;SDS011;30484;52.382;5.260;2023-04-01T01:40:24;36.70;;;10.70;;
44764;SDS011;30484;52.382;5.260;2023-04-01T01:42:56;29.13;;;9.45;;
44764;SDS011;30484;52.382;5.260;2023-04-01T01:45:28;30.38;;;8.90;;
44764;SDS011;30484;52.382;5.260;2023-04-01T01:48:00;27.02;;;8.75;;
44764;SDS011;30484;52.382;5.260;2023-04-01T01:50:34;25.85;;;9.13;;
44764;SDS011;30484;52.382;5.260;2023-04-01T01:53:05;26.38;;;8.90;;
44764;SDS011;30484;52.382;5.260;2023-04-01T01:55:36;26.25;;;8.70;;
44764;SDS011;30484;52.382;5.260;2023-04-01T01:58:07;23.80;;;7.80;;
44764;SDS011;30484;52.382;5.260;2023-04-01T02:00:41;25.45;;;8.65;;
44764;SDS011;30484;52.382;5.260;2023-04-01T02:03:14;19.63;;;8.38;;
44764;SDS011;30484;52.382;5.260;2023-04-01T02:05:47;21.63;;;8.95;;
44764;SDS011;30484;52.382;5.260;2023-04-01T02:08:20;22.65;;;8.23;;
44764;SDS011;30484;52.382;5.260;2023-04-01T02:10:55;25.45;;;8.95;;
44764;SDS011;30484;52.382;5.260;2023-04-01T02:13:29;26.57;;;9.30;;
44764;SDS011;30484;52.382;5.260;2023-04-01T02:16:05;27.98;;;9.23;;
44764;SDS011;30484;52.382;5.260;2023-04-01T02:18:40;27.70;;;8.93;;
44764;SDS011;30484;52.382;5.260;2023-04-01T02:21:15;25.70;;;9.48;;
44764;SDS011;30484;52.382;5.260;2023-04-01T02:23:52;23.98;;;9.60;;
44764;SDS011;30484;52.382;5.260;2023-04-01T02:26:24;33.47;;;10.20;;
44764;SDS011;30484;52.382;5.260;2023-04-01T02:28:54;25.30;;;8.73;;
44764;SDS011;30484;52.382;5.260;2023-04-01T02:31:27;21.75;;;8.80;;
44764;SDS011;30484;52.382;5.260;2023-04-01T02:33:57;19.60;;;8.65;;
44764;SDS011;30484;52.382;5.260;2023-04-01T02:36:29;29.52;;;9.88;;
44764;SDS011;30484;52.382;5.260;2023-04-01T02:38:57;20.10;;;9.27;;
44764;SDS011;30484;52.382;5.260;2023-04-01T02:41:52;25.63;;;9.15;;
44764;SDS011;30484;52.382;5.260;2023-04-01T02:44:38;19.88;;;8.30;;
44764;SDS011;30484;52.382;5.260;2023-04-01T02:47:07;18.35;;;9.05;;
44764;SDS011;30484;52.382;5.260;2023-04-01T02:49:42;23.02;;;8.85;;
44764;SDS011;30484;52.382;5.260;2023-04-01T02:52:12;22.95;;;10.57;;
44764;SDS011;30484;52.382;5.260;2023-04-01T02:54:41;27.80;;;11.20;;
44764;SDS011;30484;52.382;5.260;2023-04-01T02:57:10;32.92;;;11.38;;
44764;SDS011;30484;52.382;5.260;2023-04-01T02:59:38;29.30;;;12.07;;
44764;SDS011;30484;52.382;5.260;2023-04-01T03:02:07;34.22;;;13.00;;
44764;SDS011;30484;52.382;5.260;2023-04-01T03:04:36;30.48;;;12.05;;
44764;SDS011;30484;52.382;5.260;2023-04-01T03:07:05;33.05;;;13.93;;
44764;SDS011;30484;52.382;5.260;2023-04-01T03:09:36;40.97;;;13.20;;
44764;SDS011;30484;52.382;5.260;2023-04-01T03:12:06;38.42;;;13.23;;
44764;SDS011;30484;52.382;5.260;2023-04-01T03:14:36;33.88;;;12.30;;
44764;SDS011;30484;52.382;5.260;2023-04-01T03:17:04;26.77;;;12.98;;
44764;SDS011;30484;52.382;5.260;2023-04-01T03:19:33;37.35;;;13.10;;
44764;SDS011;30484;52.382;5.260;2023-04-01T03:22:02;36.35;;;12.75;;
44764;SDS011;30484;52.382;5.260;2023-04-01T03:24:30;32.78;;;11.93;;
44764;SDS011;30484;52.382;5.260;2023-04-01T03:27:01;29.92;;;11.90;;
44764;SDS011;30484;52.382;5.260;2023-04-01T03:29:30;35.15;;;12.55;;
44764;SDS011;30484;52.382;5.260;2023-04-01T03:31:58;43.30;;;12.40;;
44764;SDS011;30484;52.382;5.260;2023-04-01T03:34:27;35.10;;;12.88;;
44764;SDS011;30484;52.382;5.260;2023-04-01T03:36:56;33.17;;;11.68;;
44764;SDS011;30484;52.382;5.260;2023-04-01T03:39:25;35.42;;;11.82;;
44764;SDS011;30484;52.382;5.260;2023-04-01T03:42:03;35.00;;;11.80;;
44764;SDS011;30484;52.382;5.260;2023-04-01T03:44:33;28.05;;;11.32;;
44764;SDS011;30484;52.382;5.260;2023-04-01T03:47:02;32.50;;;11.80;;
44764;SDS011;30484;52.382;5.260;2023-04-01T03:49:30;32.28;;;12.15;;
44764;SDS011;30484;52.382;5.260;2023-04-01T03:52:00;33.33;;;11.50;;
44764;SDS011;30484;52.382;5.260;2023-04-01T03:54:29;28.08;;;11.38;;
44764;SDS011;30484;52.382;5.260;2023-04-01T03:56:58;33.28;;;11.18;;
44764;SDS011;30484;52.382;5.260;2023-04-01T03:59:29;26.27;;;10.38;;
44764;SDS011;30484;52.382;5.260;2023-04-01T04:01:57;19.88;;;8.55;;
44764;SDS011;30484;52.382;5.260;2023-04-01T04:04:27;16.15;;;8.13;;
44764;SDS011;30484;52.382;5.260;2023-04-01T04:06:56;13.65;;;7.65;;
44764;SDS011;30484;52.382;5.260;2023-04-01T04:09:25;15.82;;;8.45;;
44764;SDS011;30484;52.382;5.260;2023-04-01T04:11:54;16.35;;;9.20;;
44764;SDS011;30484;52.382;5.260;2023-04-01T04:14:23;18.80;;;10.35;;
44764;SDS011;30484;52.382;5.260;2023-04-01T04:16:54;22.67;;;13.52;;
44764;SDS011;30484;52.382;5.260;2023-04-01T04:19:22;21.42;;;12.93;;
44764;SDS011;30484;52.382;5.260;2023-04-01T04:21:52;22.00;;;13.13;;
44764;SDS011;30484;52.382;5.260;2023-04-01T04:24:21;28.27;;;14.70;;
44764;SDS011;30484;52.382;5.260;2023-04-01T04:26:49;25.20;;;14.52;;
44764;SDS011;30484;52.382;5.260;2023-04-01T04:29:19;23.92;;;15.05;;
44764;SDS011;30484;52.382;5.260;2023-04-01T04:31:49;25.42;;;14.82;;
44764;SDS011;30484;52.382;5.260;2023-04-01T04:34:22;25.15;;;14.45;;
44764;SDS011;30484;52.382;5.260;2023-04-01T04:36:51;23.73;;;13.05;;
44764;SDS011;30484;52.382;5.260;2023-04-01T04:39:19;19.83;;;11.85;;
44764;SDS011;30484;52.382;5.260;2023-04-01T04:41:48;20.73;;;11.25;;
44764;SDS011;30484;52.382;5.260;2023-04-01T04:44:16;19.63;;;11.93;;
44764;SDS011;30484;52.382;5.260;2023-04-01T04:46:45;18.10;;;11.02;;
44764;SDS011;30484;52.382;5.260;2023-04-01T04:49:14;18.50;;;11.68;;
44764;SDS011;30484;52.382;5.260;2023-04-01T04:51:45;19.92;;;12.15;;
44764;SDS011;30484;52.382;5.260;2023-04-01T04:54:13;22.05;;;12.57;;
44764;SDS011;30484;52.382;5.260;2023-04-01T04:56:42;19.55;;;12.48;;
44764;SDS011;30484;52.382;5.260;2023-04-01T04:59:11;22.77;;;12.80;;
44764;SDS011;30484;52.382;5.260;2023-04-01T05:01:40;21.23;;;11.57;;
44764;SDS011;30484;52.382;5.260;2023-04-01T05:04:08;20.25;;;12.68;;
44764;SDS011;30484;52.382;5.260;2023-04-01T05:06:37;24.27;;;12.40;;
44764;SDS011;30484;52.382;5.260;2023-04-01T05:09:07;23.52;;;11.93;;
44764;SDS011;30484;52.382;5.260;2023-04-01T05:11:36;26.55;;;12.15;;
44764;SDS011;30484;52.382;5.260;2023-04-01T05:14:05;20.63;;;11.45;;
44764;SDS011;30484;52.382;5.260;2023-04-01T05:16:36;23.58;;;12.73;;
44764;SDS011;30484;52.382;5.260;2023-04-01T05:19:06;23.17;;;12.55;;
44764;SDS011;30484;52.382;5.260;2023-04-01T05:21:37;23.27;;;13.07;;
44764;SDS011;30484;52.382;5.260;2023-04-01T05:24:08;23.00;;;13.05;;
44764;SDS011;30484;52.382;5.260;2023-04-01T05:26:37;23.88;;;12.13;;
44764;SDS011;30484;52.382;5.260;2023-04-01T05:29:05;21.45;;;12.00;;
44764;SDS011;30484;52.382;5.260;2023-04-01T05:31:49;19.33;;;11.70;;
44764;SDS011;30484;52.382;5.260;2023-04-01T05:34:18;23.17;;;11.50;;
44764;SDS011;30484;52.382;5.260;2023-04-01T05:36:48;20.10;;;11.07;;
44764;SDS011;30484;52.382;5.260;2023-04-01T05:39:27;22.33;;;12.38;;
44764;SDS011;30484;52.382;5.260;2023-04-01T05:41:55;21.88;;;12.13;;
44764;SDS011;30484;52.382;5.260;2023-04-01T05:44:24;24.75;;;13.52;;
44764;SDS011;30484;52.382;5.260;2023-04-01T05:46:53;21.10;;;12.68;;
44764;SDS011;30484;52.382;5.260;2023-04-01T05:49:21;20.52;;;11.23;;
44764;SDS011;30484;52.382;5.260;2023-04-01T05:51:54;17.10;;;9.27;;
44764;SDS011;30484;52.382;5.260;2023-04-01T05:54:24;15.27;;;7.85;;
44764;SDS011;30484;52.382;5.260;2023-04-01T05:56:53;11.63;;;6.30;;
44764;SDS011;30484;52.382;5.260;2023-04-01T05:59:21;9.10;;;5.00;;
44764;SDS011;30484;52.382;5.260;2023-04-01T06:01:50;5.38;;;3.17;;
44764;SDS011;30484;52.382;5.260;2023-04-01T06:04:19;4.40;;;2.80;;
44764;SDS011;30484;52.382;5.260;2023-04-01T06:06:48;4.35;;;2.67;;
44764;SDS011;30484;52.382;5.260;2023-04-01T06:09:18;3.55;;;2.55;;
44764;SDS011;30484;52.382;5.260;2023-04-01T06:15:24;6.28;;;3.40;;
44764;SDS011;30484;52.382;5.260;2023-04-01T06:21:23;7.03;;;3.75;;
44764;SDS011;30484;52.382;5.260;2023-04-01T06:24:40;8.15;;;4.38;;
44764;SDS011;30484;52.382;5.260;2023-04-01T06:27:26;9.27;;;5.72;;
44764;SDS011;30484;52.382;5.260;2023-04-01T06:30:19;11.10;;;6.53;;
44764;SDS011;30484;52.382;5.260;2023-04-01T06:33:05;12.88;;;7.13;;
44764;SDS011;30484;52.382;5.260;2023-04-01T06:45:29;22.48;;;13.43;;
44764;SDS011;30484;52.382;5.260;2023-04-01T06:48:14;23.88;;;14.68;;
44764;SDS011;30484;52.382;5.260;2023-04-01T06:51:06;20.80;;;13.48;;
44764;SDS011;30484;52.382;5.260;2023-04-01T06:56:32;22.17;;;13.40;;
44764;SDS011;30484;52.382;5.260;2023-04-01T06:59:07;21.88;;;14.23;;
44764;SDS011;30484;52.382;5.260;2023-04-01T07:01:47;25.85;;;14.95;;
44764;SDS011;30484;52.382;5.260;2023-04-01T07:04:26;25.80;;;14.88;;
44764;SDS011;30484;52.382;5.260;2023-04-01T07:07:04;24.58;;;14.60;;
44764;SDS011;30484;52.382;5.260;2023-04-01T07:09:44;25.33;;;14.23;;
44764;SDS011;30484;52.382;5.260;2023-04-01T07:12:19;24.65;;;14.57;;
44764;SDS011;30484;52.382;5.260;2023-04-01T07:14:57;24.77;;;15.50;;
44764;SDS011;30484;52.382;5.260;2023-04-01T07:17:31;24.23;;;15.07;;
44764;SDS011;30484;52.382;5.260;2023-04-01T07:20:11;22.67;;;14.85;;
44764;SDS011;30484;52.382;5.260;2023-04-01T07:22:48;23.67;;;13.85;;
44764;SDS011;30484;52.382;5.260;2023-04-01T07:25:20;27.08;;;14.45;;
44764;SDS011;30484;52.382;5.260;2023-04-01T07:27:52;24.48;;;15.05;;
44764;SDS011;30484;52.382;5.260;2023-04-01T07:30:25;24.65;;;15.30;;
44764;SDS011;30484;52.382;5.260;2023-04-01T07:33:02;26.30;;;15.10;;
44764;SDS011;30484;52.382;5.260;2023-04-01T07:35:39;26.23;;;15.32;;
44764;SDS011;30484;52.382;5.260;2023-04-01T07:38:26;25.48;;;15.57;;
44764;SDS011;30484;52.382;5.260;2023-04-01T07:41:09;32.85;;;15.95;;
44764;SDS011;30484;52.382;5.260;2023-04-01T07:43:50;31.77;;;15.70;;
44764;SDS011;30484;52.382;5.260;2023-04-01T07:46:33;30.17;;;15.57;;
44764;SDS011;30484;52.382;5.260;2023-04-01T07:49:20;30.00;;;16.55;;
44764;SDS011;30484;52.382;5.260;2023-04-01T07:51:58;34.47;;;16.85;;
44764;SDS011;30484;52.382;5.260;2023-04-01T07:54:36;29.40;;;15.90;;
44764;SDS011;30484;52.382;5.260;2023-04-01T07:57:14;32.05;;;17.38;;
44764;SDS011;30484;52.382;5.260;2023-04-01T07:59:54;34.38;;;17.70;;
44764;SDS011;30484;52.382;5.260;2023-04-01T08:02:36;35.63;;;17.25;;
44764;SDS011;30484;52.382;5.260;2023-04-01T08:05:19;31.50;;;17.10;;
44764;SDS011;30484;52.382;5.260;2023-04-01T08:07:56;34.75;;;17.65;;
44764;SDS011;30484;52.382;5.260;2023-04-01T08:10:36;34.65;;;17.77;;
44764;SDS011;30484;52.382;5.260;2023-04-01T08:13:15;36.63;;;17.30;;
44764;SDS011;30484;52.382;5.260;2023-04-01T08:15:55;28.83;;;15.10;;
44764;SDS011;30484;52.382;5.260;2023-04-01T08:18:36;24.67;;;14.10;;
44764;SDS011;30484;52.382;5.260;2023-04-01T08:21:20;24.90;;;14.27;;
44764;SDS011;30484;52.382;5.260;2023-04-01T08:23:52;24.50;;;14.00;;
44764;SDS011;30484;52.382;5.260;2023-04-01T08:26:27;26.00;;;14.45;;
44764;SDS011;30484;52.382;5.260;2023-04-01T08:29:04;25.15;;;15.23;;
44764;SDS011;30484;52.382;5.260;2023-04-01T08:31:39;27.83;;;15.85;;
44764;SDS011;30484;52.382;5.260;2023-04-01T08:34:19;26.90;;;15.23;;
44764;SDS011;30484;52.382;5.260;2023-04-01T08:36:55;25.55;;;14.68;;
44764;SDS011;30484;52.382;5.260;2023-04-01T08:39:31;29.63;;;15.82;;
44764;SDS011;30484;52.382;5.260;2023-04-01T08:42:12;29.90;;;15.93;;
44764;SDS011;30484;52.382;5.260;2023-04-01T08:48:36;30.42;;;16.95;;
44764;SDS011;30484;52.382;5.260;2023-04-01T08:55:28;30.13;;;17.80;;
44764;SDS011;30484;52.382;5.260;2023-04-01T09:01:24;37.92;;;19.75;;
44764;SDS011;30484;52.382;5.260;2023-04-01T09:04:20;37.90;;;19.70;;
44764;SDS011;30484;52.382;5.260;2023-04-01T09:09:45;33.97;;;19.55;;
44764;SDS011;30484;52.382;5.260;2023-04-01T09:12:41;36.58;;;19.50;;
44764;SDS011;30484;52.382;5.260;2023-04-01T09:15:42;33.92;;;18.67;;
44764;SDS011;30484;52.382;5.260;2023-04-01T09:21:45;31.90;;;17.30;;
44764;SDS011;30484;52.382;5.260;2023-04-01T09:28:25;27.35;;;16.38;;
44764;SDS011;30484;52.382;5.260;2023-04-01T09:31:17;33.38;;;17.85;;
44764;SDS011;30484;52.382;5.260;2023-04-01T09:37:20;27.60;;;15.90;;
44764;SDS011;30484;52.382;5.260;2023-04-01T09:40:03;25.33;;;15.73;;
44764;SDS011;30484;52.382;5.260;2023-04-01T09:46:09;26.92;;;14.38;;
44764;SDS011;30484;52.382;5.260;2023-04-01T09:48:52;23.85;;;14.73;;
44764;SDS011;30484;52.382;5.260;2023-04-01T09:51:53;23.77;;;14.15;;
44764;SDS011;30484;52.382;5.260;2023-04-01T09:54:52;20.50;;;13.77;;
44764;SDS011;30484;52.382;5.260;2023-04-01T10:01:13;21.27;;;12.60;;
44764;SDS011;30484;52.382;5.260;2023-04-01T10:04:20;18.83;;;10.55;;
44764;SDS011;30484;52.382;5.260;2023-04-01T10:07:29;17.27;;;11.70;;
44764;SDS011;30484;52.382;5.260;2023-04-01T10:10:33;18.33;;;12.27;;
44764;SDS011;30484;52.382;5.260;2023-04-01T10:20:12;14.85;;;10.25;;
44764;SDS011;30484;52.382;5.260;2023-04-01T10:23:39;17.38;;;10.77;;
44764;SDS011;30484;52.382;5.260;2023-04-01T10:26:30;16.27;;;10.52;;
44764;SDS011;30484;52.382;5.260;2023-04-01T10:29:29;15.95;;;10.75;;
44764;SDS011;30484;52.382;5.260;2023-04-01T10:32:31;15.63;;;11.18;;
44764;SDS011;30484;52.382;5.260;2023-04-01T10:35:45;15.38;;;10.80;;
44764;SDS011;30484;52.382;5.260;2023-04-01T10:56:00;11.75;;;9.02;;
44764;SDS011;30484;52.382;5.260;2023-04-01T11:03:02;11.15;;;9.27;;
44764;SDS011;30484;52.382;5.260;2023-04-01T11:09:31;12.50;;;10.23;;
44764;SDS011;30484;52.382;5.260;2023-04-01T11:13:01;13.38;;;11.35;;
44764;SDS011;30484;52.382;5.260;2023-04-01T11:23:14;17.45;;;13.32;;
44764;SDS011;30484;52.382;5.260;2023-04-01T11:26:33;18.63;;;13.48;;
44764;SDS011;30484;52.382;5.260;2023-04-01T11:32:27;20.40;;;13.82;;
44764;SDS011;30484;52.382;5.260;2023-04-01T11:35:36;20.58;;;14.15;;
44764;SDS011;30484;52.382;5.260;2023-04-01T11:38:38;26.75;;;15.65;;
44764;SDS011;30484;52.382;5.260;2023-04-01T11:41:49;23.05;;;14.88;;
44764;SDS011;30484;52.382;5.260;2023-04-01T11:44:29;27.10;;;15.55;;
44764;SDS011;30484;52.382;5.260;2023-04-01T11:47:09;23.50;;;15.98;;
44764;SDS011;30484;52.382;5.260;2023-04-01T11:50:10;27.35;;;15.98;;
44764;SDS011;30484;52.382;5.260;2023-04-01T11:56:00;27.75;;;16.48;;
44764;SDS011;30484;52.382;5.260;2023-04-01T11:58:50;27.20;;;16.27;;
44764;SDS011;30484;52.382;5.260;2023-04-01T12:01:51;33.00;;;16.55;;
44764;SDS011;30484;52.382;5.260;2023-04-01T12:07:31;23.10;;;13.52;;
44764;SDS011;30484;52.382;5.260;2023-04-01T12:10:26;22.08;;;14.07;;
44764;SDS011;30484;52.382;5.260;2023-04-01T12:13:24;18.95;;;12.35;;
44764;SDS011;30484;52.382;5.260;2023-04-01T12:16:08;18.85;;;12.80;;
44764;SDS011;30484;52.382;5.260;2023-04-01T12:19:21;19.40;;;11.32;;
44764;SDS011;30484;52.382;5.260;2023-04-01T12:22:08;16.50;;;11.82;;
44764;SDS011;30484;52.382;5.260;2023-04-01T12:25:07;19.00;;;12.32;;
44764;SDS011;30484;52.382;5.260;2023-04-01T12:28:00;18.80;;;12.02;;
44764;SDS011;30484;52.382;5.260;2023-04-01T12:30:49;16.58;;;12.27;;
44764;SDS011;30484;52.382;5.260;2023-04-01T12:36:31;17.80;;;10.43;;
44764;SDS011;30484;52.382;5.260;2023-04-01T12:39:33;18.27;;;11.15;;
44764;SDS011;30484;52.382;5.260;2023-04-01T12:42:22;17.13;;;11.32;;
44764;SDS011;30484;52.382;5.260;2023-04-01T12:45:29;15.15;;;9.90;;
44764;SDS011;30484;52.382;5.260;2023-04-01T12:48:14;13.82;;;10.05;;
44764;SDS011;30484;52.382;5.260;2023-04-01T12:51:47;13.70;;;9.05;;
44764;SDS011;30484;52.382;5.260;2023-04-01T13:04:39;11.07;;;8.00;;
44764;SDS011;30484;52.382;5.260;2023-04-01T13:07:42;12.02;;;9.00;;
44764;SDS011;30484;52.382;5.260;2023-04-01T13:13:14;13.60;;;9.30;;
44764;SDS011;30484;52.382;5.260;2023-04-01T13:16:14;12.85;;;9.65;;
44764;SDS011;30484;52.382;5.260;2023-04-01T13:18:52;13.80;;;10.45;;
44764;SDS011;30484;52.382;5.260;2023-04-01T13:21:32;13.00;;;10.07;;
44764;SDS011;30484;52.382;5.260;2023-04-01T13:24:13;15.00;;;9.35;;
44764;SDS011;30484;52.382;5.260;2023-04-01T13:26:59;15.02;;;9.68;;
44764;SDS011;30484;52.382;5.260;2023-04-01T13:29:35;12.55;;;8.63;;
44764;SDS011;30484;52.382;5.260;2023-04-01T13:32:14;10.60;;;8.52;;
44764;SDS011;30484;52.382;5.260;2023-04-01T13:35:20;11.68;;;8.18;;
44764;SDS011;30484;52.382;5.260;2023-04-01T13:38:04;13.30;;;7.70;;
44764;SDS011;30484;52.382;5.260;2023-04-01T13:40:55;10.50;;;7.43;;
44764;SDS011;30484;52.382;5.260;2023-04-01T13:43:49;13.20;;;7.43;;
44764;SDS011;30484;52.382;5.260;2023-04-01T13:53:37;10.85;;;7.20;;
44764;SDS011;30484;52.382;5.260;2023-04-01T13:56:48;14.15;;;7.30;;
44764;SDS011;30484;52.382;5.260;2023-04-01T14:06:04;9.85;;;6.78;;
44764;SDS011;30484;52.382;5.260;2023-04-01T14:12:00;9.95;;;7.00;;
44764;SDS011;30484;52.382;5.260;2023-04-01T14:14:48;11.50;;;7.22;;
44764;SDS011;30484;52.382;5.260;2023-04-01T14:17:40;9.90;;;7.37;;
44764;SDS011;30484;52.382;5.260;2023-04-01T14:20:27;10.50;;;7.45;;
44764;SDS011;30484;52.382;5.260;2023-04-01T14:23:39;11.27;;;7.38;;
44764;SDS011;30484;52.382;5.260;2023-04-01T14:29:58;9.02;;;6.72;;
44764;SDS011;30484;52.382;5.260;2023-04-01T14:32:45;10.20;;;7.20;;
44764;SDS011;30484;52.382;5.260;2023-04-01T14:35:25;11.85;;;7.43;;
44764;SDS011;30484;52.382;5.260;2023-04-01T14:41:20;9.63;;;7.30;;
44764;SDS011;30484;52.382;5.260;2023-04-01T14:44:16;12.88;;;6.70;;
44764;SDS011;30484;52.382;5.260;2023-04-01T14:47:43;10.35;;;7.05;;
44764;SDS011;30484;52.382;5.260;2023-04-01T14:50:17;10.30;;;7.63;;
44764;SDS011;30484;52.382;5.260;2023-04-01T14:52:52;8.27;;;6.72;;
44764;SDS011;30484;52.382;5.260;2023-04-01T14:55:29;9.88;;;7.05;;
44764;SDS011;30484;52.382;5.260;2023-04-01T14:58:09;10.07;;;6.90;;
44764;SDS011;30484;52.382;5.260;2023-04-01T15:00:43;8.80;;;6.38;;
44764;SDS011;30484;52.382;5.260;2023-04-01T15:03:23;8.45;;;6.47;;
44764;SDS011;30484;52.382;5.260;2023-04-01T15:08:47;7.97;;;6.07;;
44764;SDS011;30484;52.382;5.260;2023-04-01T15:11:31;8.20;;;5.68;;
44764;SDS011;30484;52.382;5.260;2023-04-01T15:14:18;7.78;;;5.88;;
44764;SDS011;30484;52.382;5.260;2023-04-01T15:20:32;10.35;;;5.82;;
44764;SDS011;30484;52.382;5.260;2023-04-01T15:23:28;8.27;;;5.53;;
44764;SDS011;30484;52.382;5.260;2023-04-01T15:29:33;9.55;;;5.90;;
44764;SDS011;30484;52.382;5.260;2023-04-01T15:32:43;7.82;;;5.28;;
44764;SDS011;30484;52.382;5.260;2023-04-01T15:35:28;7.38;;;5.05;;
44764;SDS011;30484;52.382;5.260;2023-04-01T15:38:14;7.38;;;5.25;;
44764;SDS011;30484;52.382;5.260;2023-04-01T15:41:02;8.73;;;5.47;;
44764;SDS011;30484;52.382;5.260;2023-04-01T15:43:44;6.57;;;5.28;;
44764;SDS011;30484;52.382;5.260;2023-04-01T15:46:26;8.27;;;4.93;;
44764;SDS011;30484;52.382;5.260;2023-04-01T15:49:16;9.15;;;5.43;;
44764;SDS011;30484;52.382;5.260;2023-04-01T15:52:06;7.07;;;5.68;;
44764;SDS011;30484;52.382;5.260;2023-04-01T15:57:50;6.55;;;5.25;;
44764;SDS011;30484;52.382;5.260;2023-04-01T16:00:40;7.22;;;5.35;;
44764;SDS011;30484;52.382;5.260;2023-04-01T16:03:19;9.27;;;5.30;;
44764;SDS011;30484;52.382;5.260;2023-04-01T16:06:01;6.72;;;5.15;;
44764;SDS011;30484;52.382;5.260;2023-04-01T16:09:16;6.50;;;5.20;;
44764;SDS011;30484;52.382;5.260;2023-04-01T16:12:12;6.25;;;4.75;;
44764;SDS011;30484;52.382;5.260;2023-04-01T16:14:52;5.00;;;4.13;;
44764;SDS011;30484;52.382;5.260;2023-04-01T16:17:49;5.40;;;3.83;;
44764;SDS011;30484;52.382;5.260;2023-04-01T16:21:06;3.38;;;3.03;;
44764;SDS011;30484;52.382;5.260;2023-04-01T16:26:19;3.95;;;2.75;;
44764;SDS011;30484;52.382;5.260;2023-04-01T16:28:55;2.97;;;2.25;;
44764;SDS011;30484;52.382;5.260;2023-04-01T16:31:34;2.88;;;2.30;;
44764;SDS011;30484;52.382;5.260;2023-04-01T16:34:16;5.00;;;2.30;;
44764;SDS011;30484;52.382;5.260;2023-04-01T16:36:49;3.28;;;2.25;;
44764;SDS011;30484;52.382;5.260;2023-04-01T16:39:27;2.70;;;2.47;;
44764;SDS011;30484;52.382;5.260;2023-04-01T16:42:22;3.25;;;2.30;;
44764;SDS011;30484;52.382;5.260;2023-04-01T16:45:06;3.28;;;2.88;;
44764;SDS011;30484;52.382;5.260;2023-04-01T16:47:53;5.88;;;2.50;;
44764;SDS011;30484;52.382;5.260;2023-04-01T16:50:29;5.82;;;3.60;;
44764;SDS011;30484;52.382;5.260;2023-04-01T16:53:19;4.28;;;3.00;;
44764;SDS011;30484;52.382;5.260;2023-04-01T16:56:04;4.40;;;3.03;;
44764;SDS011;30484;52.382;5.260;2023-04-01T16:58:50;4.97;;;2.78;;
44764;SDS011;30484;52.382;5.260;2023-04-01T17:01:31;6.18;;;3.08;;
44764;SDS011;30484;52.382;5.260;2023-04-01T17:04:13;8.10;;;2.97;;
44764;SDS011;30484;52.382;5.260;2023-04-01T17:06:55;5.15;;;2.80;;
44764;SDS011;30484;52.382;5.260;2023-04-01T17:09:51;5.20;;;3.03;;
44764;SDS011;30484;52.382;5.260;2023-04-01T17:12:47;4.72;;;3.10;;
44764;SDS011;30484;52.382;5.260;2023-04-01T17:15:30;3.17;;;2.67;;
44764;SDS011;30484;52.382;5.260;2023-04-01T17:18:10;5.45;;;3.13;;
44764;SDS011;30484;52.382;5.260;2023-04-01T17:20:48;3.78;;;2.90;;
44764;SDS011;30484;52.382;5.260;2023-04-01T17:23:26;3.42;;;2.95;;
44764;SDS011;30484;52.382;5.260;2023-04-01T17:26:02;3.50;;;2.85;;
44764;SDS011;30484;52.382;5.260;2023-04-01T17:28:59;4.18;;;2.75;;
44764;SDS011;30484;52.382;5.260;2023-04-01T17:31:43;4.80;;;2.92;;
44764;SDS011;30484;52.382;5.260;2023-04-01T17:34:23;7.63;;;3.45;;
44764;SDS011;30484;52.382;5.260;2023-04-01T17:37:23;5.43;;;4.25;;
44764;SDS011;30484;52.382;5.260;2023-04-01T17:40:12;5.03;;;3.78;;
44764;SDS011;30484;52.382;5.260;2023-04-01T17:43:00;4.10;;;3.58;;
44764;SDS011;30484;52.382;5.260;2023-04-01T17:45:41;6.20;;;3.15;;
44764;SDS011;30484;52.382;5.260;2023-04-01T17:48:18;4.40;;;3.15;;
44764;SDS011;30484;52.382;5.260;2023-04-01T17:51:07;4.78;;;3.47;;
44764;SDS011;30484;52.382;5.260;2023-04-01T17:53:54;4.95;;;3.50;;
44764;SDS011;30484;52.382;5.260;2023-04-01T17:56:36;5.40;;;4.00;;
44764;SDS011;30484;52.382;5.260;2023-04-01T17:59:19;5.45;;;3.92;;
44764;SDS011;30484;52.382;5.260;2023-04-01T18:02:01;4.32;;;3.70;;
44764;SDS011;30484;52.382;5.260;2023-04-01T18:04:52;4.05;;;3.47;;
44764;SDS011;30484;52.382;5.260;2023-04-01T18:07:48;4.80;;;3.78;;
44764;SDS011;30484;52.382;5.260;2023-04-01T18:10:38;5.90;;;3.92;;
44764;SDS011;30484;52.382;5.260;2023-04-01T18:13:32;5.35;;;4.30;;
44764;SDS011;30484;52.382;5.260;2023-04-01T18:16:43;6.53;;;4.32;;
44764;SDS011;30484;52.382;5.260;2023-04-01T18:19:28;5.28;;;4.25;;
44764;SDS011;30484;52.382;5.260;2023-04-01T18:22:15;8.57;;;5.53;;
44764;SDS011;30484;52.382;5.260;2023-04-01T18:24:54;10.02;;;6.93;;
44764;SDS011;30484;52.382;5.260;2023-04-01T18:27:29;6.60;;;5.47;;
44764;SDS011;30484;52.382;5.260;2023-04-01T18:30:11;7.15;;;5.93;;
44764;SDS011;30484;52.382;5.260;2023-04-01T18:32:47;7.05;;;5.45;;